Data for 05/07/2009

Time Sea-Level Adjusted Pressure Absolute Pressure Temperature Relative Humidity Dew Point   
(mb) (inHg) (mb) (inHg) (C) (F) (%) (C) (F)
00:05 1013 29.91 843 24.89 5.5 41.9 86 3.4 38.1
00:10 1013 29.91 843 24.89 5.7 42.3 84 3.3 37.9
00:15 1014 29.94 843 24.89 6 42.7 83 3.3 38
00:20 1014 29.94 843 24.89 6.1 42.9 83 3.3 38
00:25 1013 29.91 843 24.89 6.1 43 82 3.3 37.9
00:30 1013 29.91 843 24.89 6.2 43.1 81 3.1 37.7
00:35 1013 29.91 843 24.89 6.2 43.1 81 3.2 37.8
00:40 1013 29.91 843 24.89 6.1 43.1 82 3.3 37.9
00:45 1013 29.91 843 24.89 5.9 42.7 83 3.2 37.8
00:50 1013 29.91 843 24.89 6 42.7 81 3 37.4
00:55 1013 29.91 843 24.89 6 42.7 82 3.1 37.6
01:00 1013 29.91 843 24.89 5.8 42.4 83 3.1 37.6
01:05 1013 29.91 843 24.89 5.6 42.1 84 3.2 37.7
01:10 1014 29.94 843 24.89 5.5 41.8 86 3.2 37.8
01:15 1014 29.94 843 24.89 5.6 42 81 2.6 36.7
01:20 1014 29.94 843 24.89 6.2 43.2 79 2.8 37
01:25 1014 29.94 843 24.89 6.3 43.3 82 3.4 38.2
01:30 1014 29.94 844 24.92 6.4 43.6 82 3.6 38.5
01:35 1015 29.97 844 24.92 6.2 43.2 91 4.8 40.6
01:40 1015 29.97 844 24.92 5.6 42.1 93 4.6 40.3
01:45 1015 29.97 844 24.92 5.4 41.7 92 4.2 39.5
01:50 1015 29.97 844 24.92 5.1 41.2 92 3.9 39.1
01:55 1015 29.97 844 24.92 5.1 41.1 92 3.8 38.9
02:00 1015 29.97 844 24.92 5 41.1 91 3.8 38.8
02:05 1015 29.97 844 24.92 5.1 41.1 92 3.9 38.9
02:10 1015 29.97 844 24.92 5.1 41.2 92 3.9 39
02:15 1015 29.97 844 24.92 5.1 41.2 91 3.8 38.9
02:20 1015 29.97 844 24.92 5.2 41.4 90 3.7 38.7
02:25 1015 29.97 845 24.95 5.2 41.4 90 3.8 38.8
02:30 1015 29.97 845 24.95 5 41 91 3.7 38.7
02:35 1015 29.97 845 24.95 4.8 40.7 89 3.1 37.7
02:40 1015 29.97 845 24.95 4.7 40.5 89 3 37.4
02:45 1015 29.97 845 24.95 4.7 40.4 87 2.8 37
02:50 1016 30 845 24.95 4.7 40.4 87 2.6 36.8
02:55 1016 30 845 24.95 4.6 40.2 87 2.6 36.8
03:00 1016 30 845 24.95 4.4 40 87 2.5 36.5
03:05 1016 30 845 24.95 4.3 39.8 89 2.7 36.8
03:10 1016 30 845 24.95 4.2 39.5 88 2.4 36.4
03:15 1015 29.97 845 24.95 4.1 39.3 90 2.5 36.5
03:20 1016 30 845 24.95 3.9 39.1 90 2.4 36.3
03:25 1015 29.97 845 24.95 3.8 38.8 91 2.4 36.4
03:30 1015 29.97 844 24.92 3.8 38.8 90 2.3 36.1
03:35 1015 29.97 844 24.92 3.8 38.9 89 2.1 35.8
03:40 1015 29.97 844 24.92 3.6 38.5 89 2 35.5
03:45 1015 29.97 844 24.92 3.5 38.2 89 1.8 35.3
03:50 1015 29.97 844 24.92 3.6 38.5 88 1.7 35.1
03:55 1015 29.97 844 24.92 3.8 38.8 87 1.7 35.1
04:00 1015 29.97 844 24.92 4 39.3 85 1.7 35.1
04:05 1015 29.97 844 24.92 4.2 39.5 84 1.7 35.1
04:10 1015 29.97 844 24.92 4 39.3 83 1.4 34.5
04:15 1015 29.97 844 24.92 4.3 39.7 81 1.3 34.4
04:20 1015 29.97 844 24.92 4.4 40 80 1.3 34.3
04:25 1015 29.97 844 24.92 4.4 39.9 81 1.5 34.6
04:30 1015 29.97 844 24.92 4.3 39.8 85 2 35.7
04:35 1015 29.97 844 24.92 3.8 38.8 89 2.2 35.9
04:40 1015 29.97 844 24.92 3.6 38.6 84 1.3 34.3
04:45 1015 29.97 844 24.92 4 39.1 79 0.6 33.1
04:50 1015 29.97 844 24.92 4.4 39.9 82 1.5 34.8
04:55 1015 29.97 844 24.92 4.5 40 83 1.8 35.3
05:00 1015 29.97 844 24.92 4.4 39.9 87 2.4 36.2
05:05 1015 29.97 844 24.92 4.1 39.4 88 2.3 36.2
05:10 1015 29.97 845 24.95 4.3 39.7 87 2.3 36.1
05:15 1015 29.97 844 24.92 4.1 39.3 87 2.2 35.9
05:20 1015 29.97 844 24.92 4.1 39.3 84 1.6 34.9
05:25 1015 29.97 844 24.92 4.1 39.4 80 1 33.8
05:30 1015 29.97 844 24.92 4.5 40.2 78 1 33.9
05:35 1015 29.97 844 24.92 4.7 40.5 77 1.1 33.9
05:40 1015 29.97 844 24.92 5 40.9 75 0.9 33.7
05:45 1015 29.97 844 24.92 5 41 79 1.6 35
05:50 1015 29.97 844 24.92 4.9 40.7 78 1.4 34.5
05:55 1015 29.97 844 24.92 5.2 41.3 76 1.3 34.4
06:00 1015 29.97 844 24.92 5.2 41.3 74 0.9 33.6
06:05 1015 29.97 845 24.95 5.3 41.5 71 0.5 32.9
06:10 1015 29.97 845 24.95 5.3 41.6 72 0.7 33.3
06:15 1015 29.97 845 24.95 5.2 41.3 74 0.9 33.7
06:20 1016 30 845 24.95 5 41 74 0.8 33.5
06:25 1016 30 845 24.95 4.9 40.8 77 1.3 34.3
06:30 1016 30 845 24.95 4.8 40.7 78 1.3 34.4
06:35 1016 30 845 24.95 4.9 40.9 75 0.9 33.6
06:40 1016 30 845 24.95 5.1 41.2 73 0.7 33.3
06:45 1016 30 845 24.95 5.3 41.6 73 0.8 33.5
06:50 1016 30 845 24.95 5.3 41.5 75 1.3 34.3
06:55 1016 30 845 24.95 5.3 41.5 72 0.6 33.1
07:00 1016 30 845 24.95 5.5 42 73 1.1 34.1
07:05 1016 30 845 24.95 5.4 41.8 76 1.5 34.7
07:10 1016 30 845 24.95 5.3 41.5 76 1.3 34.4
07:15 1016 30 845 24.95 5.3 41.6 76 1.5 34.6
07:20 1016 30 845 24.95 5.7 42.2 74 1.5 34.7
07:25 1016 30 845 24.95 6.1 43 74 1.8 35.2
07:30 1016 30 845 24.95 6.2 43.1 74 1.8 35.3
07:35 1016 30 845 24.95 5.8 42.5 75 1.7 35.1
07:40 1016 30 845 24.95 5.7 42.3 76 1.8 35.3
07:45 1016 30 845 24.95 5.6 42 75 1.4 34.6
07:50 1016 30 845 24.95 5.8 42.5 75 1.7 35.1
07:55 1016 30 845 24.95 6 42.8 73 1.6 34.9
08:00 1016 30 845 24.95 6.2 43.1 72 1.5 34.7
08:05 1016 30 845 24.95 7.3 45.1 68 1.7 35
08:10 1016 30 845 24.95 7.7 45.9 66 1.8 35.2
08:15 1016 30 845 24.95 7.6 45.7 66 1.7 35
08:20 1016 30 845 24.95 8 46.3 65 1.7 35.1
08:25 1016 30 845 24.95 7.7 45.9 66 1.8 35.2
08:30 1016 30 845 24.95 7.3 45.1 68 1.7 35.1
08:35 1016 30 845 24.95 7.3 45.2 67 1.5 34.8
08:40 1016 30 845 24.95 8.1 46.5 62 1.2 34.2
08:45 1016 30 845 24.95 9.3 48.7 57 1.4 34.5
08:50 1016 30 845 24.95 9.6 49.2 56 1.3 34.3
08:55 1016 30 845 24.95 9.4 49 56 1 33.9
09:00 1016 30 845 24.95 9.5 49.2 57 1.5 34.8
09:05 1016 30 845 24.95 9.6 49.2 55 1 33.8
09:10 1016 30 845 24.95 9 48.2 57 1 33.8
09:15 1016 30 845 24.95 9 48.2 55 0.5 32.9
09:20 1016 30 845 24.95 9.3 48.8 55 0.8 33.4
09:25 1016 30 845 24.95 9.3 48.8 55 0.7 33.2
09:30 1016 30 845 24.95 9.8 49.7 48 -0.5 31.1
09:35 1016 30 845 24.95 9.9 49.9 46 -1.2 29.8
09:40 1016 30 845 24.95 9.8 49.7 44 -1.7 28.9
09:45 1016 30 845 24.95 9.7 49.5 43 -2.3 27.8
09:50 1015 29.97 845 24.95 9.7 49.5 38 -3.8 25.2
09:55 1015 29.97 845 24.95 9.4 48.9 41 -3.3 26.1
10:00 1015 29.97 845 24.95 9.4 49 40 -3.3 26
10:05 1015 29.97 845 24.95 9.3 48.7 40 -3.5 25.7
10:10 1015 29.97 845 24.95 9.2 48.6 40 -3.5 25.7
10:15 1015 29.97 845 24.95 9.2 48.6 40 -3.6 25.6
10:20 1015 29.97 845 24.95 9.9 49.7 39 -3.3 26.1
10:25 1015 29.97 845 24.95 10.1 50.1 35 -4.5 23.8
10:30 1015 29.97 845 24.95 9.9 49.7 33 -5.8 21.6
10:35 1015 29.97 845 24.95 9.8 49.6 36 -4.6 23.8
10:40 1015 29.97 845 24.95 9.6 49.3 33 -5.7 21.7
10:45 1015 29.97 845 24.95 10.4 50.7 42 -2 28.5
10:50 1015 29.97 845 24.95 9.7 49.4 48 -0.8 30.6
10:55 1015 29.97 845 24.95 8.9 47.9 51 -0.7 30.7
11:00 1015 29.97 845 24.95 7.9 46.3 53 -1.1 30
11:05 1015 29.97 845 24.95 8.2 46.7 51 -1.3 29.6
11:10 1015 29.97 845 24.95 8.5 47.3 50 -1.3 29.6
11:15 1015 29.97 845 24.95 8.8 47.9 48 -1.5 29.2
11:20 1015 29.97 845 24.95 9.6 49.3 46 -1.4 29.5
11:25 1015 29.97 844 24.92 10 49.9 47 -0.9 30.3
11:30 1015 29.97 844 24.92 9.6 49.3 46 -1.5 29.2
11:35 1015 29.97 844 24.92 10.3 50.5 44 -1.3 29.6
11:40 1015 29.97 844 24.92 9.6 49.3 45 -1.8 28.8
11:45 1015 29.97 844 24.92 10.1 50.2 42 -2.3 27.9
11:50 1015 29.97 844 24.92 10.6 51 39 -3 26.7
11:55 1015 29.97 844 24.92 10.2 50.3 38 -3.4 25.8
12:00 1015 29.97 844 24.92 10.1 50.2 38 -3.4 25.9
12:05 1015 29.97 844 24.92 10.1 50.1 37 -3.9 25.1
12:10 1015 29.97 844 24.92 10.6 51 33 -4.8 23.3
12:15 1015 29.97 844 24.92 10.5 50.9 34 -4.8 23.4
12:20 1015 29.97 844 24.92 10.6 51 35 -4.2 24.4
12:25 1015 29.97 844 24.92 10.4 50.7 36 -4.1 24.5
12:30 1015 29.97 844 24.92 10.4 50.7 33 -5.1 22.9
12:35 1015 29.97 844 24.92 10.3 50.5 32 -5.7 21.7
12:40 1014 29.94 844 24.92 10.4 50.8 32 -5.4 22.3
12:45 1014 29.94 844 24.92 10.1 50.1 37 -3.8 25.2
12:50 1014 29.94 843 24.89 9.4 48.9 40 -3.7 25.4
12:55 1014 29.94 843 24.89 9.1 48.3 41 -3.4 25.9
13:00 1014 29.94 843 24.89 9 48.2 41 -3.7 25.3
13:05 1014 29.94 843 24.89 9.7 49.4 39 -3.4 25.8
13:10 1014 29.94 843 24.89 11.1 52 33 -4.5 23.9
13:15 1014 29.94 843 24.89 11.4 52.6 35 -3.3 26.1
13:20 1014 29.94 843 24.89 11.5 52.7 32 -4.4 24.1
13:25 1014 29.94 843 24.89 10.9 51.6 35 -3.7 25.3
13:30 1014 29.94 843 24.89 10.8 51.4 36 -3.8 25.1
13:35 1014 29.94 843 24.89 10.8 51.4 37 -3.3 26.1
13:40 1014 29.94 843 24.89 12 53.6 36 -2.7 27.1
13:45 1014 29.94 843 24.89 12.1 53.7 35 -2.8 27
13:50 1013 29.91 843 24.89 11.2 52.1 38 -2.5 27.6
13:55 1013 29.91 843 24.89 10.4 50.7 41 -2.1 28.2
14:00 1014 29.94 843 24.89 10 50 41 -2.7 27.1
14:05 1014 29.94 843 24.89 9.8 49.7 45 -1.4 29.5
14:10 1014 29.94 843 24.89 9.5 49.1 55 0.9 33.6
14:15 1014 29.94 843 24.89 9.1 48.4 53 0 32.1
14:20 1014 29.94 843 24.89 9.4 48.9 55 0.9 33.6
14:25 1013 29.91 843 24.89 9.6 49.2 55 1 33.8
14:30 1014 29.94 843 24.89 8.2 46.7 66 2.2 35.9
14:35 1014 29.94 843 24.89 7.3 45.1 68 1.8 35.2
14:40 1014 29.94 843 24.89 6.6 43.9 76 2.6 36.7
14:45 1014 29.94 843 24.89 6 42.8 78 2.5 36.5
14:50 1014 29.94 844 24.92 5.6 42 76 1.6 34.9
14:55 1015 29.97 844 24.92 5.3 41.5 77 1.6 34.9
15:00 1015 29.97 844 24.92 5.4 41.7 76 1.4 34.5
15:05 1015 29.97 844 24.92 6.1 43.1 74 1.8 35.3
15:10 1015 29.97 844 24.92 5.8 42.4 79 2.4 36.3
15:15 1015 29.97 844 24.92 5.7 42.3 78 2.2 36
15:20 1015 29.97 844 24.92 5.1 41.2 81 2.2 36
15:25 1015 29.97 844 24.92 4.6 40.3 85 2.3 36.1
15:30 1015 29.97 844 24.92 4.2 39.5 86 2 35.6
15:35 1015 29.97 844 24.92 4.1 39.3 84 1.7 35
15:40 1015 29.97 845 24.95 4 39.1 85 1.7 35
15:45 1016 30 845 24.95 3.7 38.7 85 1.5 34.7
15:50 1016 30 845 24.95 3.3 37.9 86 1.2 34.2
15:55 1016 30 845 24.95 3.1 37.6 87 1.2 34.1
16:00 1016 30 846 24.98 3 37.4 87 1 33.9
16:05 1016 30 846 24.98 2.6 36.7 88 0.8 33.5
16:10 1017 30.03 846 24.98 2.7 36.9 89 1 33.8
16:15 1017 30.03 846 24.98 3.2 37.8 88 1.5 34.6
16:20 1017 30.03 846 24.98 3.6 38.5 86 1.6 34.8
16:25 1017 30.03 846 24.98 3.9 39 84 1.4 34.5
16:30 1017 30.03 846 24.98 4.1 39.4 82 1.3 34.4
16:35 1016 30 846 24.98 4.2 39.6 77 0.6 33.1
16:40 1016 30 845 24.95 4.1 39.5 76 0.3 32.6
16:45 1016 30 845 24.95 4.3 39.8 76 0.4 32.8
16:50 1016 30 846 24.98 4.6 40.3 73 0.3 32.5
16:55 1016 30 846 24.98 4.6 40.4 72 0 32
17:00 1017 30.03 846 24.98 4.5 40.1 78 0.9 33.7
17:05 1017 30.03 846 24.98 3.8 38.9 85 1.5 34.6
17:10 1016 30 846 24.98 3.6 38.4 84 1.1 33.9
17:15 1016 30 846 24.98 3.4 38.2 85 1.1 33.9
17:20 1016 30 846 24.98 3.6 38.5 84 1.2 34.1
17:25 1016 30 846 24.98 3.8 38.8 82 1.1 33.9
17:30 1016 30 846 24.98 3.9 39 81 1 33.7
17:35 1016 30 846 24.98 3.9 39 81 0.9 33.6
17:40 1017 30.03 846 24.98 3.6 38.5 83 1.1 33.9
17:45 1017 30.03 846 24.98 3.8 38.9 79 0.5 32.9
17:50 1017 30.03 846 24.98 3.6 38.5 83 1 33.9
17:55 1017 30.03 846 24.98 3.4 38.1 84 1 33.7
18:00 1017 30.03 846 24.98 3 37.4 84 0.5 32.9
18:05 1017 30.03 846 24.98 2.9 37.3 86 0.8 33.4
18:10 1017 30.03 846 24.98 1.7 35.1 92 0.5 32.9
18:15 1018 30.06 847 25.01 1.1 34 93 0.1 32.2
18:20 1018 30.06 847 25.01 0.9 33.7 94 0.1 32.2
18:25 1018 30.06 847 25.01 0.8 33.5 95 0.1 32.2
18:30 1018 30.06 847 25.01 0.9 33.5 95 0.1 32.2
18:35 1018 30.06 848 25.04 0.7 33.3 95 0.1 32.1
18:40 1018 30.06 847 25.01 0.7 33.3 95 0 32
18:45 1018 30.06 847 25.01 0.8 33.4 93 -0.2 31.6
18:50 1018 30.06 847 25.01 1 33.7 91 -0.3 31.4
18:55 1018 30.06 847 25.01 0.7 33.3 90 -0.7 30.8
19:00 1018 30.06 847 25.01 0.7 33.3 86 -1.4 29.5
19:05 1018 30.06 847 25.01 1.1 34 82 -1.6 29.2
19:10 1018 30.06 848 25.04 1.5 34.8 81 -1.4 29.6
19:15 1018 30.06 848 25.04 1.8 35.2 77 -1.8 28.8
19:20 1018 30.06 847 25.01 1.5 34.7 82 -1.2 29.9
19:25 1018 30.06 847 25.01 1.2 34.2 84 -1.2 29.8
19:30 1018 30.06 847 25.01 1.4 34.5 83 -1.2 29.8
19:35 1018 30.06 847 25.01 1.4 34.5 80 -1.7 29
19:40 1018 30.06 847 25.01 1.7 35 79 -1.5 29.3
19:45 1018 30.06 847 25.01 1.8 35.3 76 -1.9 28.6
19:50 1018 30.06 847 25.01 1.8 35.2 78 -1.7 29
19:55 1018 30.06 847 25.01 1.7 35.1 72 -2.7 27.1
20:00 1018 30.06 847 25.01 2.1 35.9 69 -2.9 26.9
20:05 1018 30.06 847 25.01 2.4 36.4 66 -3.3 26.1
20:10 1018 30.06 847 25.01 2.8 37 65 -3.2 26.2
20:15 1018 30.06 847 25.01 2.8 37.1 66 -2.8 26.9
20:20 1018 30.06 847 25.01 2.7 36.8 64 -3.4 25.8
20:25 1018 30.06 847 25.01 2.8 37 65 -3.2 26.2
20:30 1018 30.06 847 25.01 2.7 36.8 68 -2.7 27.2
20:35 1018 30.06 847 25.01 2.5 36.5 69 -2.6 27.3
20:40 1018 30.06 847 25.01 2.5 36.5 67 -3.1 26.5
20:45 1018 30.06 847 25.01 2.5 36.5 68 -2.7 27.2
20:50 1018 30.06 847 25.01 2.4 36.4 65 -3.5 25.7
20:55 1018 30.06 847 25.01 2.6 36.6 63 -3.7 25.4
21:00 1018 30.06 847 25.01 2.6 36.7 63 -3.8 25.2
21:05 1018 30.06 847 25.01 2.7 36.9 62 -3.8 25.2
21:10 1018 30.06 847 25.01 2.7 36.8 65 -3.3 26
21:15 1018 30.06 847 25.01 2.6 36.6 64 -3.6 25.6
21:20 1018 30.06 847 25.01 2.6 36.7 63 -3.7 25.4
21:25 1018 30.06 848 25.04 2.7 36.8 60 -4.4 24.1
21:30 1018 30.06 848 25.04 2.8 37.1 59 -4.3 24.2
21:35 1019 30.09 848 25.04 2.8 37 63 -3.6 25.6
21:40 1019 30.09 848 25.04 2.6 36.6 63 -3.7 25.3
21:45 1019 30.09 848 25.04 2.5 36.5 66 -3.3 26.1
21:50 1019 30.09 848 25.04 2.5 36.5 63 -3.8 25.1
21:55 1019 30.09 848 25.04 2.6 36.7 64 -3.6 25.5
22:00 1019 30.09 848 25.04 2.5 36.4 64 -3.6 25.5
22:05 1019 30.09 848 25.04 2.5 36.4 65 -3.4 25.9
22:10 1019 30.09 848 25.04 2.3 36.2 68 -2.9 26.8
22:15 1019 30.09 848 25.04 2.1 35.7 69 -3 26.5
22:20 1019 30.09 848 25.04 2 35.6 70 -2.9 26.8
22:25 1019 30.09 848 25.04 2 35.6 70 -2.8 26.9
22:30 1019 30.09 848 25.04 2 35.6 71 -2.7 27.2
22:35 1019 30.09 848 25.04 1.9 35.5 71 -2.8 26.9
22:40 1019 30.09 848 25.04 2 35.6 69 -3 26.6
22:45 1019 30.09 848 25.04 2.1 35.8 68 -3.1 26.4
22:50 1019 30.09 848 25.04 2.1 35.7 68 -3.2 26.3
22:55 1019 30.09 848 25.04 2.1 35.8 68 -3.3 26.1
23:00 1019 30.09 848 25.04 2.1 35.8 66 -3.6 25.5
23:05 1019 30.09 848 25.04 2.2 36 63 -4 24.7
23:10 1019 30.09 848 25.04 2.4 36.2 62 -4.2 24.5
23:15 1019 30.09 848 25.04 2.3 36.1 62 -4.3 24.3
23:20 1019 30.09 848 25.04 2.3 36.1 60 -4.7 23.5
23:25 1019 30.09 849 25.07 2.3 36.1 59 -4.9 23.2
23:30 1019 30.09 849 25.07 2.2 36 61 -4.6 23.8
23:35 1019 30.09 849 25.07 2 35.5 63 -4.2 24.4
23:40 1019 30.09 848 25.04 1.7 35.1 63 -4.5 23.8
23:45 1019 30.09 848 25.04 1.6 34.9 58 -5.7 21.8
23:50 1019 30.09 848 25.04 1.9 35.5 59 -5.3 22.4
23:55 1019 30.09 848 25.04 2.2 35.9 56 -5.8 21.6
24:00 1019 30.09 848 25.04 2.3 36.1 55 -5.9 21.4